Time;durP1;ratioP1;P1;durP2;ratioP2;P2;SDS_P1;SDS_P2;PMS_P1;PMS_P2;Temp;Humidity;BMP_temperature;BMP_pressure;BME280_temperature;BME280_humidity;BME280_pressure;Samples;Min_cycle;Max_cycle;Signal;HPM_P1;HPM_P2
2021/01/05 00:01:30;;;;;;;22.55;9.52;;;2.50;99.90;;;;;;5053026;28;20029;-55
2021/01/05 00:03:55;;;;;;;21.40;8.55;;;2.50;99.90;;;;;;5032439;28;20033;-53
2021/01/05 00:06:23;;;;;;;21.77;9.93;;;2.60;99.90;;;;;;5032519;28;20462;-52
2021/01/05 00:08:49;;;;;;;20.73;7.55;;;2.50;99.90;;;;;;4688903;28;10000362;-56
2021/01/05 00:11:15;;;;;;;23.35;9.02;;;2.60;99.90;;;;;;5044888;28;20021;-49
2021/01/05 00:13:41;;;;;;;20.85;8.52;;;2.50;99.90;;;;;;5043413;28;20029;-57
2021/01/05 00:16:07;;;;;;;20.63;8.90;;;2.50;99.90;;;;;;5040628;28;20033;-49
2021/01/05 00:18:32;;;;;;;21.05;8.48;;;2.50;99.90;;;;;;5045127;28;20678;-53
2021/01/05 00:20:58;;;;;;;21.98;8.35;;;2.50;99.90;;;;;;5037792;28;20495;-56
2021/01/05 00:23:23;;;;;;;23.83;9.63;;;2.50;99.90;;;;;;5045891;28;20090;-54
2021/01/05 00:25:49;;;;;;;21.35;9.27;;;2.50;99.90;;;;;;5043796;28;20034;-49
2021/01/05 00:28:15;;;;;;;21.55;8.38;;;2.50;99.90;;;;;;5045661;28;20032;-56
2021/01/05 00:30:41;;;;;;;21.15;8.93;;;2.50;99.90;;;;;;5045988;28;20037;-54
2021/01/05 00:33:07;;;;;;;22.55;9.30;;;2.50;99.90;;;;;;5039964;28;20492;-50
2021/01/05 00:35:36;;;;;;;20.80;8.13;;;2.50;99.90;;;;;;5042572;28;20025;-51
2021/01/05 00:38:06;;;;;;;21.45;8.77;;;2.50;99.90;;;;;;5042317;28;20049;-52
2021/01/05 00:40:32;;;;;;;24.30;10.32;;;2.50;99.90;;;;;;5047107;28;20416;-51
2021/01/05 00:42:59;;;;;;;18.83;7.40;;;2.40;99.90;;;;;;5048939;28;20090;-54
2021/01/05 00:45:27;;;;;;;21.45;8.90;;;2.40;99.90;;;;;;5046879;28;20021;-53
2021/01/05 00:47:52;;;;;;;21.80;9.23;;;2.40;99.90;;;;;;5047716;28;20059;-54
2021/01/05 00:50:18;;;;;;;22.45;8.35;;;2.40;99.90;;;;;;5081194;28;20056;-57
2021/01/05 00:52:44;;;;;;;23.00;9.25;;;2.40;99.90;;;;;;5048052;28;20029;-55
2021/01/05 00:55:10;;;;;;;21.20;8.88;;;2.40;99.90;;;;;;5047953;28;20385;-51
2021/01/05 00:57:35;;;;;;;20.10;7.53;;;2.30;99.90;;;;;;5048715;28;20029;-49
2021/01/05 01:00:05;;;;;;;23.13;10.55;;;2.40;99.90;;;;;;5046979;28;20031;-57
2021/01/05 01:02:31;;;;;;;22.00;9.40;;;2.40;99.90;;;;;;5047825;28;20025;-54
2021/01/05 01:04:57;;;;;;;20.60;8.20;;;2.40;99.90;;;;;;5030880;28;20021;-57
2021/01/05 01:07:22;;;;;;;19.95;8.40;;;2.40;99.90;;;;;;5048861;28;20511;-53
2021/01/05 01:09:48;;;;;;;24.60;9.50;;;2.40;99.90;;;;;;5046293;28;20087;-55
2021/01/05 01:12:20;;;;;;;24.40;9.63;;;2.50;99.90;;;;;;5047397;28;20495;-57
2021/01/05 01:14:49;;;;;;;24.42;10.20;;;2.50;99.90;;;;;;5048471;28;20032;-53
2021/01/05 01:17:15;;;;;;;27.98;9.85;;;2.50;99.90;;;;;;5048485;28;20032;-54
2021/01/05 01:19:41;;;;;;;25.27;10.45;;;2.50;99.90;;;;;;5047946;28;20036;-54
2021/01/05 01:22:07;;;;;;;20.67;9.07;;;2.50;99.90;;;;;;5048651;28;20401;-57
2021/01/05 01:24:44;;;;;;;22.73;9.52;;;2.50;99.90;;;;;;5040673;28;20033;-54
2021/01/05 01:27:10;;;;;;;24.42;9.63;;;2.50;99.90;;;;;;5031385;28;20025;-56
2021/01/05 01:29:35;;;;;;;23.42;10.32;;;2.40;99.90;;;;;;5030339;28;20574;-51
2021/01/05 01:32:01;;;;;;;24.70;10.15;;;2.40;99.90;;;;;;5033031;28;20112;-53
2021/01/05 01:34:27;;;;;;;24.40;10.82;;;2.50;99.90;;;;;;5031236;28;20022;-55
2021/01/05 01:36:58;;;;;;;26.80;9.95;;;2.50;99.90;;;;;;5032304;28;20164;-51
2021/01/05 01:39:25;;;;;;;25.13;10.68;;;2.50;99.90;;;;;;5030715;28;20025;-57
2021/01/05 01:41:51;;;;;;;25.30;10.77;;;2.50;99.90;;;;;;5030798;28;20091;-53
2021/01/05 01:44:29;;;;;;;24.85;11.43;;;2.50;99.90;;;;;;5042360;28;20101;-55
2021/01/05 01:47:12;;;;;;;24.42;10.15;;;2.50;99.90;;;;;;5041932;28;20029;-54
2021/01/05 01:49:38;;;;;;;28.17;11.85;;;2.40;99.90;;;;;;5043107;28;20642;-56
2021/01/05 01:52:08;;;;;;;25.70;11.57;;;2.50;99.90;;;;;;5033241;28;20493;-54
2021/01/05 01:55:04;;;;;;;24.55;11.60;;;2.50;99.90;;;;;;5033815;28;20493;-55
2021/01/05 01:58:14;;;;;;;24.77;9.52;;;2.50;99.90;;;;;;5038738;28;20069;-57
2021/01/05 02:00:42;;;;;;;25.63;10.80;;;2.40;99.90;;;;;;5051826;28;20083;-55
2021/01/05 02:03:08;;;;;;;25.50;10.13;;;2.40;99.90;;;;;;5043199;28;20030;-54
2021/01/05 02:05:52;;;;;;;26.25;10.30;;;2.50;99.90;;;;;;5032284;28;20037;-56
2021/01/05 02:08:45;;;;;;;26.23;10.63;;;2.50;99.90;;;;;;5031739;28;20052;-56
2021/01/05 02:11:37;;;;;;;26.42;9.45;;;2.40;99.90;;;;;;5045633;28;20021;-58
2021/01/05 02:14:10;;;;;;;21.48;8.82;;;2.40;99.90;;;;;;5044758;28;20542;-56
2021/01/05 02:16:50;;;;;;;24.83;9.45;;;2.50;99.90;;;;;;5030508;28;20068;-55
2021/01/05 02:19:40;;;;;;;25.45;10.77;;;2.50;99.90;;;;;;5037328;28;20048;-53
2021/01/05 02:22:43;;;;;;;28.83;12.60;;;2.50;99.90;;;;;;5052039;28;20051;-53
2021/01/05 02:25:13;;;;;;;23.17;10.52;;;2.50;99.90;;;;;;5052061;28;20053;-54
2021/01/05 02:27:49;;;;;;;22.42;9.82;;;2.50;99.90;;;;;;5051553;28;20029;-54
2021/01/05 02:30:20;;;;;;;24.77;10.52;;;2.50;99.90;;;;;;5050039;28;20021;-56
2021/01/05 02:32:54;;;;;;;23.40;10.25;;;2.50;99.90;;;;;;5051687;28;20563;-54
2021/01/05 02:35:39;;;;;;;24.58;9.35;;;2.50;99.90;;;;;;5050111;28;20040;-54
2021/01/05 02:38:27;;;;;;;23.70;10.55;;;2.50;99.90;;;;;;5051475;28;20056;-52
2021/01/05 02:40:53;;;;;;;;;;;2.50;99.90;;;;;;5051993;28;20067;-56
2021/01/05 02:43:43;;;;;;;24.02;9.30;;;2.50;99.90;;;;;;5051301;28;19932;-54
2021/01/05 02:46:27;;;;;;;25.13;10.32;;;2.50;99.90;;;;;;5045547;28;20040;-55
2021/01/05 02:49:09;;;;;;;24.73;8.98;;;2.50;99.90;;;;;;5035990;28;20029;-56
2021/01/05 02:52:29;;;;;;;24.83;9.63;;;2.40;99.90;;;;;;5047753;28;20104;-54
2021/01/05 02:55:09;;;;;;;22.23;9.07;;;2.40;99.90;;;;;;5013683;28;20034;-53
2021/01/05 02:57:59;;;;;;;22.00;8.48;;;2.40;99.90;;;;;;5045896;28;20040;-54
2021/01/05 03:00:25;;;;;;;23.38;8.95;;;2.40;99.90;;;;;;5055288;28;20021;-57
2021/01/05 03:03:24;;;;;;;23.80;10.10;;;2.50;99.90;;;;;;5039241;28;20477;-57
2021/01/05 03:06:13;;;;;;;24.58;10.38;;;2.50;99.90;;;;;;5034223;28;20108;-62
2021/01/05 03:08:49;;;;;;;23.77;9.43;;;2.50;99.90;;;;;;5033754;28;20381;-51
2021/01/05 03:11:22;;;;;;;23.75;9.25;;;2.50;99.90;;;;;;5035021;28;20485;-59
2021/01/05 03:14:06;;;;;;;23.58;10.55;;;2.50;99.90;;;;;;5035768;28;20029;-56
2021/01/05 03:16:37;;;;;;;27.30;11.80;;;2.50;99.90;;;;;;5050507;28;20029;-56
2021/01/05 03:19:08;;;;;;;25.05;10.48;;;2.40;99.90;;;;;;5055069;28;20025;-55
2021/01/05 03:21:39;;;;;;;24.60;9.77;;;2.50;99.90;;;;;;5062363;28;20026;-57
2021/01/05 03:24:06;;;;;;;26.80;10.52;;;2.50;99.90;;;;;;5035499;28;20018;-55
2021/01/05 03:26:39;;;;;;;23.27;9.65;;;2.50;99.90;;;;;;5035339;28;20022;-55
2021/01/05 03:29:09;;;;;;;25.67;10.00;;;2.40;99.90;;;;;;5034616;28;20036;-56
2021/01/05 03:31:44;;;;;;;22.95;9.20;;;2.40;99.90;;;;;;5033984;28;20034;-52
2021/01/05 03:34:09;;;;;;;25.88;9.88;;;2.40;99.90;;;;;;5033529;28;20120;-57
2021/01/05 03:36:35;;;;;;;26.75;11.38;;;2.40;99.90;;;;;;5034223;28;20134;-54
2021/01/05 03:39:00;;;;;;;25.38;10.40;;;2.40;99.90;;;;;;5032981;28;20395;-57
2021/01/05 03:41:29;;;;;;;26.10;10.18;;;2.40;99.90;;;;;;5033765;28;20036;-53
2021/01/05 03:43:54;;;;;;;22.20;9.68;;;2.40;99.90;;;;;;5034068;28;20072;-52
2021/01/05 03:46:21;;;;;;;24.20;10.13;;;2.40;99.90;;;;;;5042583;28;20029;-51
2021/01/05 03:48:50;;;;;;;25.73;10.45;;;2.40;99.90;;;;;;5053828;28;20028;-55
2021/01/05 03:51:15;;;;;;;;;;;2.40;99.90;;;;;;5052036;28;20028;-53
2021/01/05 03:53:41;;;;;;;26.75;10.98;;;2.40;99.90;;;;;;5066469;28;19905;-56
2021/01/05 03:56:07;;;;;;;25.45;10.60;;;2.50;99.90;;;;;;5040834;28;20091;-56
2021/01/05 03:58:33;;;;;;;27.25;10.85;;;2.50;99.90;;;;;;5034779;28;20422;-53
2021/01/05 04:00:59;;;;;;;27.05;10.50;;;2.40;99.90;;;;;;5054594;28;20075;-54
2021/01/05 04:03:25;;;;;;;25.00;11.30;;;2.40;99.90;;;;;;5045301;28;20037;-56
2021/01/05 04:05:53;;;;;;;26.05;11.15;;;2.40;99.90;;;;;;5033553;28;20018;-56
2021/01/05 04:08:19;;;;;;;26.88;10.80;;;2.40;99.90;;;;;;5033846;28;20032;-55
2021/01/05 04:10:45;;;;;;;27.80;11.73;;;2.50;99.90;;;;;;5034078;28;20030;-55
2021/01/05 04:13:11;;;;;;;23.90;9.88;;;2.40;99.90;;;;;;5034245;28;20167;-53
2021/01/05 04:15:37;;;;;;;28.35;11.13;;;2.40;99.90;;;;;;5039455;28;20527;-56
2021/01/05 04:18:03;;;;;;;23.80;10.43;;;2.50;99.90;;;;;;5040345;28;20025;-57
2021/01/05 04:20:30;;;;;;;26.15;10.85;;;2.50;99.90;;;;;;5053530;28;20021;-57
2021/01/05 04:22:57;;;;;;;27.45;10.38;;;2.50;99.90;;;;;;5053902;28;20024;-54
2021/01/05 04:25:24;;;;;;;25.23;10.63;;;2.50;99.90;;;;;;5042840;28;20026;-51
2021/01/05 04:27:51;;;;;;;27.40;11.00;;;2.50;99.90;;;;;;5033959;28;20057;-58
2021/01/05 04:30:26;;;;;;;29.65;11.80;;;2.50;99.90;;;;;;5033682;28;20116;-51
2021/01/05 04:32:54;;;;;;;26.02;11.25;;;2.50;99.90;;;;;;5033791;28;20459;-52
2021/01/05 04:35:22;;;;;;;26.35;10.75;;;2.50;99.90;;;;;;5039864;28;20029;-58
2021/01/05 04:37:48;;;;;;;23.83;10.50;;;2.50;99.90;;;;;;5053574;28;20078;-54
2021/01/05 04:40:22;;;;;;;26.30;11.63;;;2.50;99.90;;;;;;5052127;28;20035;-56
2021/01/05 04:42:53;;;;;;;27.77;11.07;;;2.50;99.90;;;;;;5069036;28;20511;-53
2021/01/05 04:45:22;;;;;;;25.00;10.98;;;2.50;99.90;;;;;;5053331;28;20173;-56
2021/01/05 04:48:04;;;;;;;29.08;10.07;;;2.50;99.90;;;;;;5041287;28;20036;-55
2021/01/05 04:50:42;;;;;;;23.52;9.65;;;2.50;99.90;;;;;;5040329;28;20087;-56
2021/01/05 04:53:36;;;;;;;25.83;10.77;;;2.50;99.90;;;;;;5033736;28;20120;-55
2021/01/05 04:56:11;;;;;;;26.95;10.55;;;2.60;99.90;;;;;;5039248;28;20075;-57
2021/01/05 04:58:58;;;;;;;23.83;9.52;;;2.50;99.90;;;;;;5039255;28;20534;-50
2021/01/05 05:01:30;;;;;;;22.60;9.57;;;2.50;99.90;;;;;;5036506;28;20104;-56
2021/01/05 05:04:19;;;;;;;24.35;10.38;;;2.50;99.90;;;;;;5053174;28;20021;-58
2021/01/05 05:07:22;;;;;;;24.30;9.68;;;2.50;99.90;;;;;;5061803;28;20029;-57
2021/01/05 05:09:55;;;;;;;24.88;9.80;;;2.50;99.90;;;;;;5032472;28;20029;-54
2021/01/05 05:12:39;;;;;;;22.48;9.57;;;2.50;99.90;;;;;;5033332;28;20385;-56
2021/01/05 05:15:29;;;;;;;27.25;11.35;;;2.50;99.90;;;;;;5032966;28;20032;-55
2021/01/05 05:18:20;;;;;;;26.80;9.68;;;2.50;99.90;;;;;;5045251;28;20033;-52
2021/01/05 05:21:23;;;;;;;27.38;11.25;;;2.50;99.90;;;;;;5051432;28;20484;-55
2021/01/05 05:24:01;;;;;;;23.63;10.15;;;2.50;99.90;;;;;;4991008;28;20066;-57
2021/01/05 05:26:35;;;;;;;29.70;10.98;;;2.50;99.90;;;;;;5045020;28;20036;-55
2021/01/05 05:29:17;;;;;;;24.95;10.23;;;2.50;99.90;;;;;;5038199;28;20025;-54
2021/01/05 05:31:46;;;;;;;32.10;11.13;;;2.40;99.90;;;;;;5032875;28;20025;-54
2021/01/05 05:34:28;;;;;;;27.35;10.15;;;2.50;99.90;;;;;;5033722;28;20408;-51
2021/01/05 05:37:11;;;;;;;24.80;10.98;;;2.50;99.90;;;;;;5052130;28;20037;-55
2021/01/05 05:39:55;;;;;;;26.33;11.07;;;2.50;99.90;;;;;;5039593;28;20024;-55
2021/01/05 05:42:51;;;;;;;27.95;11.32;;;2.50;99.90;;;;;;5032341;28;20022;-53
2021/01/05 05:45:24;;;;;;;29.55;11.00;;;2.40;99.90;;;;;;5032321;28;20024;-55
2021/01/05 05:48:34;;;;;;;29.58;11.55;;;2.60;99.90;;;;;;5038022;28;20387;-54
2021/01/05 05:51:12;;;;;;;23.67;9.30;;;2.80;99.90;;;;;;5053112;28;20512;-54
2021/01/05 05:53:45;;;;;;;32.45;12.65;;;3.10;99.90;;;;;;5032081;28;20025;-54
2021/01/05 05:56:14;;;;;;;25.48;11.23;;;3.10;99.90;;;;;;5032146;28;20025;-52
2021/01/05 05:58:54;;;;;;;24.77;10.15;;;3.00;99.90;;;;;;5031561;28;20393;-53
2021/01/05 06:01:28;;;;;;;26.02;11.50;;;2.90;99.90;;;;;;5043090;28;20389;-54
2021/01/05 06:03:57;;;;;;;26.67;10.30;;;2.80;99.90;;;;;;5051851;28;20044;-55
2021/01/05 06:06:23;;;;;;;27.73;10.52;;;2.80;99.90;;;;;;5043615;28;20036;-54
2021/01/05 06:08:51;;;;;;;25.73;10.95;;;2.70;99.90;;;;;;5035565;28;20036;-56
2021/01/05 06:11:17;;;;;;;29.05;10.10;;;2.70;99.90;;;;;;5051887;28;20043;-54
2021/01/05 06:13:43;;;;;;;25.73;10.18;;;2.70;99.90;;;;;;5051555;28;20033;-54
2021/01/05 06:16:09;;;;;;;29.15;10.77;;;2.70;99.90;;;;;;5036161;28;20121;-56
2021/01/05 06:21:43;;;;;;;25.63;10.50;;;2.60;99.90;;;;;;4951160;29;20163;-56
2021/01/05 06:24:09;;;;;;;27.15;11.70;;;2.60;99.90;;;;;;5018443;28;20053;-53
2021/01/05 06:26:35;;;;;;;27.50;10.77;;;2.60;99.90;;;;;;5030818;28;20198;-54
2021/01/05 06:29:02;;;;;;;25.83;10.40;;;2.70;99.90;;;;;;5029213;28;20049;-55
2021/01/05 06:31:27;;;;;;;24.65;10.68;;;2.70;99.90;;;;;;5032307;28;20508;-55
2021/01/05 06:33:53;;;;;;;28.08;11.73;;;2.70;99.90;;;;;;5042568;28;20116;-55
2021/01/05 06:36:18;;;;;;;26.98;11.68;;;2.60;99.90;;;;;;5047259;28;20029;-55
2021/01/05 06:38:45;;;;;;;24.35;10.30;;;2.70;99.90;;;;;;5050608;28;20063;-56
2021/01/05 06:41:11;;;;;;;23.27;9.88;;;2.70;99.90;;;;;;5051555;28;20025;-54
2021/01/05 06:43:36;;;;;;;26.45;11.48;;;2.70;99.90;;;;;;5051393;28;20023;-52
2021/01/05 06:46:02;;;;;;;25.90;10.35;;;2.70;99.90;;;;;;5051395;28;20024;-55
2021/01/05 06:48:28;;;;;;;25.63;10.32;;;2.70;99.90;;;;;;5049637;28;20071;-57
2021/01/05 06:50:53;;;;;;;30.23;10.30;;;2.70;99.90;;;;;;5051436;28;20029;-57
2021/01/05 06:53:20;;;;;;;24.88;11.13;;;2.70;99.90;;;;;;5051351;28;20025;-57
2021/01/05 06:55:45;;;;;;;28.45;12.00;;;2.60;99.90;;;;;;5051550;28;20064;-57
2021/01/05 06:58:14;;;;;;;25.83;10.73;;;2.60;99.90;;;;;;5051095;28;20049;-55
2021/01/05 07:00:40;;;;;;;29.15;11.50;;;2.60;99.90;;;;;;5050712;28;20492;-54
2021/01/05 07:03:05;;;;;;;24.25;9.73;;;2.60;99.90;;;;;;5040135;28;20033;-58
2021/01/05 07:05:31;;;;;;;23.67;9.82;;;2.70;99.90;;;;;;5032099;28;20017;-57
2021/01/05 07:07:57;;;;;;;24.88;10.57;;;2.70;99.90;;;;;;5030973;28;20068;-49
2021/01/05 08:38:44;;;;;;;29.13;11.20;;;2.80;99.90;;;;;;5017999;28;20100;-55
2021/01/05 08:41:10;;;;;;;25.38;11.93;;;2.80;99.90;;;;;;5013229;28;20445;-54
2021/01/05 08:43:35;;;;;;;32.17;13.65;;;2.80;99.90;;;;;;5025935;28;20017;-51
2021/01/05 08:46:01;;;;;;;25.98;12.45;;;2.80;99.90;;;;;;5016899;28;20371;-54
2021/01/05 08:48:27;;;;;;;28.08;12.25;;;2.80;99.90;;;;;;5034579;28;20071;-53
2021/01/05 08:50:52;;;;;;;25.55;10.52;;;2.80;99.90;;;;;;5036333;28;20415;-55
2021/01/05 08:53:18;;;;;;;30.38;11.65;;;2.80;99.90;;;;;;5031928;28;20025;-57
2021/01/05 08:55:44;;;;;;;25.60;12.52;;;2.80;99.90;;;;;;5033545;28;20485;-55
2021/01/05 08:58:10;;;;;;;28.60;12.60;;;2.80;99.90;;;;;;5032908;28;20091;-50
2021/01/05 09:00:36;;;;;;;27.45;13.68;;;2.80;99.90;;;;;;5014928;28;20112;-56
2021/01/05 09:03:02;;;;;;;36.92;18.65;;;2.90;99.90;;;;;;5033476;28;20099;-52
2021/01/05 09:05:28;;;;;;;30.85;13.07;;;2.90;99.90;;;;;;5032635;28;20076;-56
2021/01/05 09:07:54;;;;;;;30.33;13.82;;;2.90;99.90;;;;;;5015325;28;20057;-51
2021/01/05 09:10:23;;;;;;;29.90;13.23;;;2.90;99.90;;;;;;5032762;28;20031;-56
2021/01/05 09:12:49;;;;;;;33.15;14.60;;;2.80;99.90;;;;;;5033275;28;20152;-57
2021/01/05 09:15:20;;;;;;;28.48;12.82;;;2.80;99.90;;;;;;5015596;28;20030;-54
2021/01/05 09:17:50;;;;;;;31.25;13.00;;;2.90;99.90;;;;;;5032853;28;20396;-55
2021/01/05 09:20:18;;;;;;;29.27;13.50;;;2.90;99.90;;;;;;5032236;28;20087;-58
2021/01/05 09:22:44;;;;;;;31.08;12.90;;;2.90;99.90;;;;;;5033125;28;20025;-55
2021/01/05 09:25:11;;;;;;;32.70;13.45;;;2.90;99.90;;;;;;5032877;28;20113;-56
2021/01/05 09:27:37;;;;;;;32.10;13.90;;;2.90;99.90;;;;;;5032653;28;20033;-56
2021/01/05 09:30:11;;;;;;;30.17;12.48;;;2.90;99.90;;;;;;5032418;28;20444;-56
2021/01/05 09:32:36;;;;;;;29.10;14.82;;;2.90;99.90;;;;;;5032532;28;20476;-55
2021/01/05 09:35:04;;;;;;;29.75;13.55;;;2.90;99.90;;;;;;5020370;28;20052;-57
2021/01/05 09:37:29;;;;;;;28.00;13.25;;;3.00;99.90;;;;;;5027796;28;20033;-57
2021/01/05 09:39:55;;;;;;;32.00;14.30;;;2.90;99.90;;;;;;5031583;28;20021;-57
2021/01/05 09:42:21;;;;;;;29.83;14.20;;;2.90;99.90;;;;;;5032471;28;20029;-54
2021/01/05 09:44:46;;;;;;;30.67;12.68;;;3.00;99.90;;;;;;5013944;28;20068;-52
2021/01/05 09:47:18;;;;;;;32.00;12.48;;;3.00;99.90;;;;;;5032205;28;20488;-57
2021/01/05 09:49:44;;;;;;;30.20;13.00;;;3.00;99.90;;;;;;5031978;28;20029;-56
2021/01/05 09:52:09;;;;;;;27.85;12.82;;;3.00;99.90;;;;;;5031153;28;20079;-57
2021/01/05 09:54:35;;;;;;;33.95;14.73;;;3.00;99.90;;;;;;5032894;28;20029;-52
2021/01/05 09:57:01;;;;;;;27.73;12.20;;;3.00;99.90;;;;;;5025822;28;20656;-55
2021/01/05 09:59:27;;;;;;;28.95;12.75;;;3.10;99.90;;;;;;5013680;28;20026;-45
2021/01/05 10:01:54;;;;;;;31.63;13.68;;;3.10;99.90;;;;;;5032141;28;20515;-46
2021/01/05 10:04:20;;;;;;;29.88;13.50;;;3.10;99.90;;;;;;5032337;28;20013;-45
2021/01/05 10:06:45;;;;;;;34.88;14.73;;;3.20;99.90;;;;;;5031215;28;20021;-48
2021/01/05 10:09:12;;;;;;;30.80;13.52;;;3.20;99.90;;;;;;5030402;28;20120;-47
2021/01/05 10:11:47;;;;;;;31.38;13.73;;;3.00;99.90;;;;;;5030813;28;20021;-50
2021/01/05 10:14:16;;;;;;;31.55;13.60;;;3.00;99.90;;;;;;5030852;28;20441;-47
2021/01/05 10:16:42;;;;;;;30.30;12.15;;;3.00;99.90;;;;;;5030497;28;20025;-50
2021/01/05 10:19:11;;;;;;;28.85;13.05;;;3.00;99.90;;;;;;5031000;28;20083;-46
2021/01/05 10:21:39;;;;;;;31.50;14.40;;;3.10;99.90;;;;;;5032162;28;20026;-46
2021/01/05 10:24:06;;;;;;;30.63;13.23;;;3.10;99.90;;;;;;5032088;28;20025;-48
2021/01/05 10:26:33;;;;;;;30.60;14.57;;;3.10;99.90;;;;;;5031325;28;20037;-51
2021/01/05 10:28:59;;;;;;;28.25;13.55;;;3.00;99.90;;;;;;5030297;28;20029;-46
2021/01/05 10:31:26;;;;;;;28.70;12.98;;;3.10;99.90;;;;;;5031862;28;20036;-49
2021/01/05 10:33:51;;;;;;;30.52;14.48;;;3.00;99.90;;;;;;5029484;28;20025;-47
2021/01/05 10:36:19;;;;;;;28.20;12.68;;;3.10;99.90;;;;;;5029921;28;20091;-43
2021/01/05 10:38:48;;;;;;;30.90;13.60;;;3.10;99.90;;;;;;5016829;28;20426;-50
2021/01/05 10:41:17;;;;;;;31.88;13.88;;;3.10;99.90;;;;;;4994837;28;20064;-48
2021/01/05 10:43:44;;;;;;;29.40;13.55;;;3.10;99.90;;;;;;4994314;28;20106;-63
2021/01/05 10:46:10;;;;;;;29.75;13.57;;;3.10;99.90;;;;;;4994387;28;20022;-55
2021/01/05 10:48:35;;;;;;;29.70;14.02;;;3.10;99.90;;;;;;5021021;28;20014;-52
2021/01/05 10:51:18;;;;;;;30.67;14.00;;;3.20;99.90;;;;;;5029158;28;20501;-52
2021/01/05 10:53:53;;;;;;;27.00;12.45;;;3.20;99.90;;;;;;5025785;28;20021;-53
2021/01/05 10:56:30;;;;;;;29.10;12.00;;;3.30;99.90;;;;;;5010747;28;20026;-54
2021/01/05 10:58:55;;;;;;;26.98;13.45;;;3.30;99.90;;;;;;5021008;28;20036;-51
2021/01/05 11:01:21;;;;;;;28.30;11.95;;;3.30;99.90;;;;;;5023860;28;20022;-52
2021/01/05 11:03:46;;;;;;;28.50;12.85;;;3.40;99.90;;;;;;5031082;28;20046;-49
2021/01/05 11:06:12;;;;;;;30.90;11.80;;;3.40;99.90;;;;;;5029756;28;20115;-48
2021/01/05 11:08:38;;;;;;;28.95;12.80;;;3.40;99.90;;;;;;5030310;28;20022;-46
2021/01/05 11:11:05;;;;;;;27.67;12.13;;;3.40;99.90;;;;;;5030597;28;20060;-48
2021/01/05 11:13:33;;;;;;;25.67;10.48;;;3.40;99.90;;;;;;5015147;28;20029;-53
2021/01/05 11:15:58;;;;;;;27.20;12.25;;;3.40;99.90;;;;;;5018845;28;20021;-50
2021/01/05 11:18:24;;;;;;;26.02;11.32;;;3.40;99.90;;;;;;5035445;28;20108;-56
2021/01/05 11:20:50;;;;;;;25.02;10.85;;;3.40;99.90;;;;;;5034802;28;20030;-55
2021/01/05 11:23:16;;;;;;;25.67;11.13;;;3.40;99.90;;;;;;5034774;28;20029;-51
2021/01/05 11:25:42;;;;;;;25.63;11.35;;;3.40;99.90;;;;;;5034649;28;20029;-53
2021/01/05 11:28:08;;;;;;;25.95;11.75;;;3.50;99.90;;;;;;5034578;28;20064;-50
2021/01/05 11:30:34;;;;;;;27.67;12.27;;;3.50;99.90;;;;;;5032607;28;20361;-54
2021/01/05 11:33:00;;;;;;;25.20;11.88;;;3.50;99.90;;;;;;5017491;28;20028;-52
2021/01/05 11:35:25;;;;;;;23.65;10.63;;;3.50;99.90;;;;;;5016655;28;20477;-55
2021/01/05 11:37:51;;;;;;;27.58;11.45;;;3.60;99.90;;;;;;5026580;28;20041;-56
2021/01/05 11:40:18;;;;;;;28.42;12.05;;;3.50;99.90;;;;;;5031163;28;20130;-52
2021/01/05 11:42:44;;;;;;;27.85;12.73;;;3.60;99.90;;;;;;5033611;28;20014;-54
2021/01/05 11:45:12;;;;;;;27.58;12.07;;;3.60;99.90;;;;;;5034619;28;20028;-57
2021/01/05 11:47:38;;;;;;;27.60;11.50;;;3.50;99.90;;;;;;5034523;28;20067;-55
2021/01/05 11:50:25;;;;;;;30.52;13.15;;;3.60;99.90;;;;;;5032697;28;20091;-53
2021/01/05 11:53:10;;;;;;;28.83;12.45;;;3.60;99.90;;;;;;5034321;28;20033;-54
2021/01/05 11:55:35;;;;;;;27.20;11.90;;;3.70;99.90;;;;;;5034256;28;20028;-54
2021/01/05 12:08:34;;;;;;;26.08;9.95;;;3.60;99.90;;;;;;5036982;28;20575;-55
2021/01/05 12:10:59;;;;;;;24.00;10.73;;;3.60;99.90;;;;;;5036542;28;20079;-53
2021/01/05 12:13:26;;;;;;;27.15;11.07;;;3.60;99.90;;;;;;5035466;28;20034;-52
2021/01/05 12:15:52;;;;;;;23.42;11.15;;;3.60;99.90;;;;;;5017293;28;20056;-55
2021/01/05 12:18:17;;;;;;;27.52;10.73;;;3.60;99.90;;;;;;5035250;28;20033;-55
2021/01/05 12:20:43;;;;;;;22.67;10.18;;;3.60;99.90;;;;;;5036501;28;20481;-53
2021/01/05 12:23:09;;;;;;;25.83;11.02;;;3.60;99.90;;;;;;5019424;28;20025;-53
2021/01/05 12:25:34;;;;;;;25.42;10.63;;;3.50;99.90;;;;;;5036850;28;20504;-55
2021/01/05 12:28:00;;;;;;;23.25;9.23;;;3.50;99.90;;;;;;5035825;28;20033;-52
2021/01/05 12:30:26;;;;;;;27.10;12.25;;;3.40;99.90;;;;;;5033938;28;20025;-52
2021/01/05 12:32:52;;;;;;;27.67;12.45;;;3.50;99.90;;;;;;5034802;28;20550;-54
2021/01/05 12:35:20;;;;;;;24.02;10.80;;;3.50;99.90;;;;;;5016421;28;20071;-55
2021/01/05 12:37:45;;;;;;;26.25;10.88;;;3.50;99.90;;;;;;5012783;28;20032;-54
2021/01/05 12:40:15;;;;;;;23.70;10.00;;;3.50;99.90;;;;;;5013604;28;20025;-58
2021/01/05 12:42:40;;;;;;;22.55;8.90;;;3.60;99.90;;;;;;5013112;28;20137;-51
2021/01/05 12:45:10;;;;;;;24.52;9.35;;;3.50;99.90;;;;;;5014556;28;20049;-54
2021/01/05 12:47:36;;;;;;;26.17;10.65;;;3.50;99.90;;;;;;5014238;28;20036;-52
2021/01/05 12:50:03;;;;;;;26.20;11.13;;;3.30;99.90;;;;;;5013938;28;20431;-56
2021/01/05 12:52:29;;;;;;;25.10;10.70;;;3.40;99.90;;;;;;5012929;28;20049;-56
2021/01/05 12:54:55;;;;;;;26.30;10.55;;;3.30;99.90;;;;;;5014488;28;20030;-51
2021/01/05 12:57:20;;;;;;;24.33;10.80;;;3.20;99.90;;;;;;5013083;28;20056;-53
2021/01/05 12:59:47;;;;;;;26.60;11.25;;;3.30;99.90;;;;;;5013363;28;20026;-54
2021/01/05 13:02:25;;;;;;;27.85;13.00;;;3.20;99.90;;;;;;5012944;28;20109;-53
2021/01/05 13:04:51;;;;;;;;;;;3.20;99.90;;;;;;5014187;28;20030;-53
2021/01/05 13:07:18;;;;;;;28.27;11.63;;;3.20;99.90;;;;;;5013722;28;19916;-53
2021/01/05 13:09:44;;;;;;;25.70;11.18;;;3.20;99.90;;;;;;5011899;28;20026;-56
2021/01/05 13:12:10;;;;;;;26.17;10.88;;;3.20;99.90;;;;;;5013966;28;20030;-56
2021/01/05 13:14:36;;;;;;;25.58;11.35;;;3.10;99.90;;;;;;5012096;28;20088;-55
2021/01/05 13:17:02;;;;;;;28.63;12.00;;;3.10;99.90;;;;;;5012454;28;20117;-54
2021/01/05 13:19:28;;;;;;;28.80;12.80;;;3.10;99.90;;;;;;5013016;28;20060;-53
2021/01/05 13:21:54;;;;;;;30.48;12.32;;;3.20;99.90;;;;;;5011972;28;20032;-52
2021/01/05 13:24:24;;;;;;;28.10;13.20;;;3.20;99.90;;;;;;5013357;28;20048;-54
2021/01/05 13:26:52;;;;;;;29.40;12.82;;;3.20;99.90;;;;;;5026266;23;20088;-53
2021/01/05 13:29:18;;;;;;;31.90;12.32;;;3.20;99.90;;;;;;5026958;28;20026;-57
2021/01/05 13:31:54;;;;;;;29.42;12.05;;;3.20;99.90;;;;;;5012385;28;20037;-54
2021/01/05 13:34:23;;;;;;;34.22;14.38;;;3.20;99.90;;;;;;5027634;28;20030;-53
2021/01/05 13:36:49;;;;;;;29.38;12.90;;;3.20;99.90;;;;;;5026335;28;20029;-58
2021/01/05 13:39:16;;;;;;;29.58;11.95;;;3.20;99.90;;;;;;4992812;28;20109;-57
2021/01/05 13:41:43;;;;;;;28.40;13.23;;;3.20;99.90;;;;;;4992890;28;20029;-57
2021/01/05 13:44:08;;;;;;;27.05;12.85;;;3.20;99.90;;;;;;4991490;28;20390;-55
2021/01/05 13:46:37;;;;;;;32.25;13.25;;;3.20;99.90;;;;;;4993385;28;20027;-53
2021/01/05 13:49:05;;;;;;;28.45;13.23;;;3.20;99.90;;;;;;4996826;28;20025;-58
2021/01/05 13:51:37;;;;;;;32.90;13.48;;;3.30;99.90;;;;;;5011057;28;20125;-58
2021/01/05 13:54:04;;;;;;;31.98;13.73;;;3.30;99.90;;;;;;5013262;28;20045;-56
2021/01/05 13:56:30;;;;;;;30.13;13.55;;;3.30;99.90;;;;;;5011526;28;20041;-56
2021/01/05 13:58:55;;;;;;;24.23;12.10;;;3.30;99.90;;;;;;5010407;28;20393;-55
2021/01/05 14:01:23;;;;;;;32.15;12.82;;;3.30;99.90;;;;;;5011592;28;20025;-56
2021/01/05 14:03:51;;;;;;;28.73;11.60;;;3.30;99.90;;;;;;5012122;28;20017;-57
2021/01/05 14:06:27;;;;;;;29.90;13.02;;;3.30;99.90;;;;;;5010343;28;20034;-55
2021/01/05 14:08:55;;;;;;;27.95;12.27;;;3.30;99.90;;;;;;5009711;28;20036;-53
2021/01/05 14:11:22;;;;;;;29.37;11.60;;;3.30;99.90;;;;;;5011913;28;20030;-55
2021/01/05 14:13:48;;;;;;;31.42;13.07;;;3.30;99.90;;;;;;5012099;28;20281;-54
2021/01/05 14:16:23;;;;;;;28.77;12.43;;;3.20;99.90;;;;;;5027318;28;20501;-58
2021/01/05 14:18:51;;;;;;;29.63;12.65;;;3.30;99.90;;;;;;5027054;28;20381;-54
2021/01/05 14:21:31;;;;;;;33.05;13.10;;;3.30;99.90;;;;;;5012117;28;20025;-51
2021/01/05 14:23:59;;;;;;;30.55;13.40;;;3.30;99.90;;;;;;5011841;28;20072;-56
2021/01/05 14:26:26;;;;;;;25.73;12.15;;;3.30;99.90;;;;;;5011362;28;20037;-55
2021/01/05 14:28:51;;;;;;;26.92;11.98;;;3.30;99.90;;;;;;5026694;28;20389;-55
2021/01/05 14:31:19;;;;;;;29.23;12.10;;;3.30;99.90;;;;;;5012000;28;20026;-56
2021/01/05 14:33:46;;;;;;;28.15;11.40;;;3.30;99.90;;;;;;5011910;28;20032;-57
2021/01/05 14:36:27;;;;;;;26.65;11.98;;;3.40;99.90;;;;;;5011212;28;20404;-52
2021/01/05 14:38:53;;;;;;;26.60;11.23;;;3.40;99.90;;;;;;5025576;28;20037;-56